Time;durP1;ratioP1;P1;durP2;ratioP2;P2;SDS_P1;SDS_P2;PMS_P1;PMS_P2;Temp;Humidity;BMP_temperature;BMP_pressure;BME280_temperature;BME280_humidity;BME280_pressure;Samples;Min_cycle;Max_cycle;Signal;HPM_P1;HPM_P2
2022/10/03 00:02:03;;;;;;;9.85;3.10;;;;;;;;;;5116480;27;20051;-84
2022/10/03 00:04:32;;;;;;;8.57;2.88;;;;;;;;;;5112650;27;20042;-83
2022/10/03 00:07:01;;;;;;;10.85;3.00;;;;;;;;;;5114322;27;20494;-83
2022/10/03 00:09:43;;;;;;;8.30;2.80;;;;;;;;;;5117753;27;20133;-83
2022/10/03 00:12:12;;;;;;;7.60;2.50;;;;;;;;;;5112339;27;20035;-83
2022/10/03 00:14:44;;;;;;;10.55;2.65;;;;;;;;;;5120973;27;20043;-83
2022/10/03 00:17:16;;;;;;;7.63;2.53;;;;;;;;;;5111982;27;20039;-83
2022/10/03 00:19:46;;;;;;;8.18;2.22;;;;;;;;;;5108919;27;20042;-83
2022/10/03 00:22:25;;;;;;;9.60;2.60;;;;;;;;;;5130925;27;20116;-83
2022/10/03 00:25:00;;;;;;;6.82;2.38;;;;;;;;;;5116753;27;20113;-83
2022/10/03 00:27:30;;;;;;;8.25;2.55;;;;;;;;;;5127559;27;20051;-83
2022/10/03 00:29:56;;;;;;;7.90;2.33;;;;;;;;;;5133091;27;20560;-82
2022/10/03 00:32:32;;;;;;;6.53;2.00;;;;;;;;;;5116837;27;20121;-82
2022/10/03 00:34:58;;;;;;;9.18;2.70;;;;;;;;;;5112001;27;20078;-83
2022/10/03 00:37:49;;;;;;;8.90;2.20;;;;;;;;;;5130342;27;20031;-83
2022/10/03 00:40:34;;;;;;;9.35;2.35;;;;;;;;;;5100498;27;20105;-83
2022/10/03 00:43:15;;;;;;;10.82;2.25;;;;;;;;;;5128129;27;20042;-84
2022/10/03 00:46:00;;;;;;;7.00;2.00;;;;;;;;;;5107873;27;20043;-83
2022/10/03 00:48:41;;;;;;;9.63;2.10;;;;;;;;;;5112502;27;20161;-82
2022/10/03 00:51:07;;;;;;;8.77;2.72;;;;;;;;;;5111375;27;20084;-83
2022/10/03 00:53:45;;;;;;;7.95;2.08;;;;;;;;;;5125500;27;20066;-83
2022/10/03 00:56:11;;;;;;;8.05;1.98;;;;;;;;;;5106908;27;20044;-82
2022/10/03 00:59:03;;;;;;;8.48;2.40;;;;;;;;;;5109927;27;20504;-82
2022/10/03 01:01:44;;;;;;;5.65;1.88;;;;;;;;;;5092334;27;20159;-83
2022/10/03 01:04:33;;;;;;;9.07;2.35;;;;;;;;;;5111919;27;20431;-83
2022/10/03 01:07:09;;;;;;;6.68;1.92;;;;;;;;;;5111692;27;20504;-83
2022/10/03 01:10:00;;;;;;;7.32;1.95;;;;;;;;;;5128330;27;20084;-82
2022/10/03 01:12:36;;;;;;;6.47;1.98;;;;;;;;;;5129747;27;20170;-84
2022/10/03 01:15:09;;;;;;;5.97;2.20;;;;;;;;;;5106081;27;20043;-82
2022/10/03 01:17:46;;;;;;;4.97;1.92;;;;;;;;;;5108270;27;20092;-82
2022/10/03 01:20:22;;;;;;;8.68;2.30;;;;;;;;;;5112403;27;20406;-83
2022/10/03 01:22:57;;;;;;;7.13;1.75;;;;;;;;;;5121689;27;20043;-83
2022/10/03 01:25:50;;;;;;;7.07;1.70;;;;;;;;;;5124511;27;20486;-83
2022/10/03 01:31:55;;;;;;;7.40;1.98;;;;;;;;;;5096202;27;20043;-83
2022/10/03 01:34:42;;;;;;;4.63;1.83;;;;;;;;;;5115194;27;20386;-83
2022/10/03 01:37:07;;;;;;;8.43;2.25;;;;;;;;;;5134214;27;20049;-83
2022/10/03 01:39:40;;;;;;;6.45;2.00;;;;;;;;;;5111597;27;20031;-83
2022/10/03 01:42:20;;;;;;;5.95;1.83;;;;;;;;;;5125606;27;20118;-83
2022/10/03 01:44:48;;;;;;;7.25;2.05;;;;;;;;;;5117528;27;20065;-83
2022/10/03 01:47:17;;;;;;;8.90;2.20;;;;;;;;;;5122137;27;20043;-84
2022/10/03 01:49:59;;;;;;;10.23;1.83;;;;;;;;;;5126810;27;20085;-82
2022/10/03 01:52:37;;;;;;;10.10;2.22;;;;;;;;;;5108579;27;20055;-83
2022/10/03 01:55:10;;;;;;;10.73;2.05;;;;;;;;;;5130630;27;20130;-83
2022/10/03 01:57:42;;;;;;;12.27;2.55;;;;;;;;;;5127116;27;20047;-83
2022/10/03 02:00:09;;;;;;;5.50;2.00;;;;;;;;;;5115846;27;20085;-83
2022/10/03 02:02:38;;;;;;;8.00;1.80;;;;;;;;;;5131568;27;20084;-83
2022/10/03 02:05:23;;;;;;;7.00;2.00;;;;;;;;;;5118650;27;20035;-83
2022/10/03 02:07:53;;;;;;;10.13;2.20;;;;;;;;;;5130313;27;20047;-82
2022/10/03 02:10:35;;;;;;;5.00;2.22;;;;;;;;;;5118038;27;20039;-83
2022/10/03 02:13:07;;;;;;;9.40;2.28;;;;;;;;;;5128579;27;20051;-83
2022/10/03 02:15:53;;;;;;;6.35;2.30;;;;;;;;;;5129560;27;20106;-83
2022/10/03 02:18:46;;;;;;;7.60;2.38;;;;;;;;;;5114327;27;20031;-83
2022/10/03 02:21:12;;;;;;;7.20;2.00;;;;;;;;;;5107068;27;20063;-83
2022/10/03 02:23:42;;;;;;;8.35;1.95;;;;;;;;;;5132288;27;20044;-83
2022/10/03 02:26:08;;;;;;;7.80;1.90;;;;;;;;;;5127401;27;20039;-83
2022/10/03 02:28:38;;;;;;;9.02;2.40;;;;;;;;;;5121987;27;20050;-83
2022/10/03 02:31:23;;;;;;;9.95;1.88;;;;;;;;;;5128508;27;20562;-83
2022/10/03 02:33:58;;;;;;;7.38;2.05;;;;;;;;;;5105683;27;20071;-83
2022/10/03 02:36:39;;;;;;;7.28;2.10;;;;;;;;;;5109632;27;20047;-82
2022/10/03 02:39:18;;;;;;;10.88;2.08;;;;;;;;;;5129702;27;20054;-83
2022/10/03 02:41:56;;;;;;;6.78;1.90;;;;;;;;;;5119148;27;20073;-83
2022/10/03 02:44:22;;;;;;;5.35;1.95;;;;;;;;;;5110623;27;20092;-83
2022/10/03 02:47:15;;;;;;;6.57;1.85;;;;;;;;;;5104614;27;20437;-83
2022/10/03 02:50:01;;;;;;;7.13;1.60;;;;;;;;;;5068046;27;20585;-82
2022/10/03 02:52:43;;;;;;;9.07;2.00;;;;;;;;;;5100442;27;20062;-82
2022/10/03 02:55:28;;;;;;;7.43;1.92;;;;;;;;;;5124365;27;20146;-82
2022/10/03 02:58:01;;;;;;;6.28;1.73;;;;;;;;;;5111065;27;20051;-83
2022/10/03 03:00:27;;;;;;;;;;;;;;;;;;5104220;27;20448;-82
2022/10/03 03:03:13;;;;;;;10.85;2.00;;;;;;;;;;5111831;27;19930;-83
2022/10/03 03:05:58;;;;;;;9.85;1.67;;;;;;;;;;5111758;27;20550;-82
2022/10/03 03:08:27;;;;;;;6.65;2.03;;;;;;;;;;5125236;27;20555;-82
2022/10/03 03:11:12;;;;;;;8.00;2.22;;;;;;;;;;5112561;27;20067;-83
2022/10/03 03:13:38;;;;;;;9.18;1.80;;;;;;;;;;5106750;27;20042;-82
2022/10/03 03:16:27;;;;;;;10.57;1.80;;;;;;;;;;5107849;27;20039;-83
2022/10/03 03:18:53;;;;;;;8.32;1.83;;;;;;;;;;5115959;27;20387;-83
2022/10/03 03:21:38;;;;;;;8.60;2.20;;;;;;;;;;5128195;27;20050;-83
2022/10/03 03:24:04;;;;;;;6.70;1.90;;;;;;;;;;5114624;27;20091;-82
2022/10/03 03:26:40;;;;;;;8.52;1.83;;;;;;;;;;5111051;28;20099;-83
2022/10/03 03:29:20;;;;;;;3.95;1.77;;;;;;;;;;5107709;27;20066;-83
2022/10/03 03:31:53;;;;;;;6.20;2.05;;;;;;;;;;5112246;28;20055;-82
2022/10/03 03:34:20;;;;;;;5.53;2.00;;;;;;;;;;5115552;27;20398;-83
2022/10/03 03:37:09;;;;;;;9.02;1.77;;;;;;;;;;5106092;27;20050;-83
2022/10/03 03:39:35;;;;;;;7.95;1.80;;;;;;;;;;5115933;28;20046;-83
2022/10/03 03:42:07;;;;;;;6.35;2.10;;;;;;;;;;5130419;28;20501;-83
2022/10/03 03:44:46;;;;;;;5.97;1.58;;;;;;;;;;5120663;28;20035;-83
2022/10/03 03:47:30;;;;;;;6.75;2.03;;;;;;;;;;5112198;28;20052;-83
2022/10/03 03:49:59;;;;;;;8.20;2.00;;;;;;;;;;5119172;28;20145;-82
2022/10/03 03:52:25;;;;;;;6.53;1.92;;;;;;;;;;5124095;27;20498;-83
2022/10/03 03:54:57;;;;;;;5.03;1.70;;;;;;;;;;5107125;28;20079;-83
2022/10/03 03:57:38;;;;;;;10.80;2.00;;;;;;;;;;5105207;28;20130;-83
2022/10/03 04:00:13;;;;;;;5.35;1.88;;;;;;;;;;5111576;28;20046;-83
2022/10/03 04:02:49;;;;;;;6.28;2.15;;;;;;;;;;5125142;27;20539;-82
2022/10/03 04:05:34;;;;;;;8.85;1.92;;;;;;;;;;5119243;28;20043;-83
2022/10/03 04:08:20;;;;;;;7.18;1.60;;;;;;;;;;5124695;27;20047;-82
2022/10/03 04:11:04;;;;;;;8.15;1.70;;;;;;;;;;5108487;28;20049;-83
2022/10/03 04:13:30;;;;;;;7.40;1.80;;;;;;;;;;5107782;28;20047;-83
2022/10/03 04:16:15;;;;;;;3.50;1.55;;;;;;;;;;5119791;28;20069;-83
2022/10/03 04:18:56;;;;;;;5.47;2.00;;;;;;;;;;5108394;28;20047;-83
2022/10/03 04:21:30;;;;;;;5.00;1.50;;;;;;;;;;5127411;28;20047;-83
2022/10/03 04:24:08;;;;;;;4.10;1.77;;;;;;;;;;5106469;28;20047;-83
2022/10/03 04:26:41;;;;;;;4.00;1.52;;;;;;;;;;5124806;27;20043;-83
2022/10/03 04:29:26;;;;;;;7.32;1.90;;;;;;;;;;5126327;27;20137;-83
2022/10/03 04:31:58;;;;;;;5.93;1.98;;;;;;;;;;5107130;27;20055;-83
2022/10/03 04:34:36;;;;;;;8.00;1.90;;;;;;;;;;5104893;28;20039;-83
2022/10/03 04:37:17;;;;;;;4.40;1.65;;;;;;;;;;5120610;27;20047;-84
2022/10/03 04:39:53;;;;;;;8.30;1.88;;;;;;;;;;5106982;27;20386;-83
2022/10/03 04:42:26;;;;;;;5.15;1.80;;;;;;;;;;5116794;27;20039;-83
2022/10/03 04:44:55;;;;;;;7.63;2.00;;;;;;;;;;5109421;27;20051;-83
2022/10/03 04:47:21;;;;;;;8.52;1.77;;;;;;;;;;5117444;27;20043;-84
2022/10/03 04:49:52;;;;;;;8.20;1.90;;;;;;;;;;5133217;27;20379;-83
2022/10/03 04:52:32;;;;;;;3.92;1.88;;;;;;;;;;5132075;27;20055;-83
2022/10/03 04:55:16;;;;;;;5.65;1.80;;;;;;;;;;5110598;27;20047;-83
2022/10/03 04:58:04;;;;;;;5.32;1.83;;;;;;;;;;5132873;27;20435;-83
2022/10/03 05:00:33;;;;;;;7.95;1.95;;;;;;;;;;5108340;27;20035;-82
2022/10/03 05:03:12;;;;;;;8.30;1.98;;;;;;;;;;5131196;27;20134;-82
2022/10/03 05:05:47;;;;;;;5.53;1.88;;;;;;;;;;5118812;27;20043;-83
2022/10/03 05:08:33;;;;;;;4.80;2.00;;;;;;;;;;5132303;27;20090;-83
2022/10/03 05:11:05;;;;;;;6.80;1.90;;;;;;;;;;5127865;27;20077;-83
2022/10/03 05:13:38;;;;;;;5.28;1.60;;;;;;;;;;5129187;27;20050;-83
2022/10/03 05:16:13;;;;;;;4.65;2.30;;;;;;;;;;5107706;27;20051;-82
2022/10/03 05:18:51;;;;;;;6.22;3.45;;;;;;;;;;5129876;27;20328;-83
2022/10/03 05:21:23;;;;;;;14.73;7.70;;;;;;;;;;5113710;27;20047;-83
2022/10/03 05:23:52;;;;;;;14.32;8.10;;;;;;;;;;5131910;27;20115;-83
2022/10/03 05:26:38;;;;;;;11.93;6.00;;;;;;;;;;5113806;27;20137;-82
2022/10/03 05:29:21;;;;;;;9.63;4.65;;;;;;;;;;5104341;27;20031;-82
2022/10/03 05:32:05;;;;;;;6.95;3.60;;;;;;;;;;5129501;27;20131;-82
2022/10/03 05:34:35;;;;;;;8.95;2.92;;;;;;;;;;5130903;27;20451;-83
2022/10/03 05:37:25;;;;;;;6.35;3.20;;;;;;;;;;5122590;27;20055;-82
2022/10/03 05:39:51;;;;;;;6.03;3.00;;;;;;;;;;5105366;27;20048;-82
2022/10/03 05:42:30;;;;;;;5.05;2.50;;;;;;;;;;5108121;27;20042;-83
2022/10/03 05:45:02;;;;;;;7.93;2.60;;;;;;;;;;5123669;27;20043;-83
2022/10/03 05:47:46;;;;;;;9.00;2.90;;;;;;;;;;5121064;27;20049;-83
2022/10/03 05:50:40;;;;;;;7.00;3.03;;;;;;;;;;5110662;27;20377;-82
2022/10/03 05:53:33;;;;;;;7.43;2.90;;;;;;;;;;5114839;27;20133;-82
2022/10/03 05:56:05;;;;;;;6.75;2.70;;;;;;;;;;5106981;27;20387;-83
2022/10/03 05:58:37;;;;;;;7.22;2.50;;;;;;;;;;5116064;27;20107;-83
2022/10/03 06:01:11;;;;;;;5.70;2.63;;;;;;;;;;5135857;27;20045;-83
2022/10/03 06:03:36;;;;;;;;;;;;;;;;;;5104573;27;20039;-82
2022/10/03 06:06:19;;;;;;;5.68;2.35;;;;;;;;;;5109305;27;20275;-83
2022/10/03 06:09:04;;;;;;;5.27;2.20;;;;;;;;;;5110011;27;20054;-82
2022/10/03 06:11:56;;;;;;;6.18;2.33;;;;;;;;;;5119248;27;20458;-83
2022/10/03 06:14:28;;;;;;;7.65;2.30;;;;;;;;;;5129608;27;20085;-83
2022/10/03 06:17:14;;;;;;;4.35;2.03;;;;;;;;;;5133129;27;20043;-82
2022/10/03 06:19:51;;;;;;;5.07;1.92;;;;;;;;;;5115877;27;20088;-83
2022/10/03 06:22:35;;;;;;;5.22;2.20;;;;;;;;;;5131989;27;20061;-82
2022/10/03 06:25:20;;;;;;;5.70;2.20;;;;;;;;;;5125139;27;20082;-83
2022/10/03 06:27:56;;;;;;;10.52;2.35;;;;;;;;;;5125923;27;20110;-82
2022/10/03 06:30:22;;;;;;;7.00;2.35;;;;;;;;;;5128241;27;20128;-82
2022/10/03 06:32:54;;;;;;;7.53;2.35;;;;;;;;;;5118931;27;20154;-82
2022/10/03 06:35:39;;;;;;;7.35;2.28;;;;;;;;;;5116715;27;20493;-82
2022/10/03 06:38:05;;;;;;;6.07;2.22;;;;;;;;;;5117741;27;20091;-82
2022/10/03 06:40:43;;;;;;;4.93;2.17;;;;;;;;;;5128657;27;20444;-82
2022/10/03 06:43:16;;;;;;;4.78;2.00;;;;;;;;;;5111638;27;20043;-82
2022/10/03 06:46:03;;;;;;;3.05;1.90;;;;;;;;;;5129420;27;20114;-82
2022/10/03 06:48:48;;;;;;;8.65;2.42;;;;;;;;;;5113059;27;20051;-82
2022/10/03 06:51:14;;;;;;;7.07;2.00;;;;;;;;;;5109034;27;20091;-82
2022/10/03 06:53:58;;;;;;;10.00;2.72;;;;;;;;;;5119141;27;20043;-82
2022/10/03 06:56:40;;;;;;;11.35;2.50;;;;;;;;;;5129966;27;20046;-82
2022/10/03 06:59:19;;;;;;;6.45;2.10;;;;;;;;;;5121561;27;20043;-83
2022/10/03 07:01:54;;;;;;;7.15;2.50;;;;;;;;;;5109817;27;20064;-82
2022/10/03 07:04:39;;;;;;;7.88;2.13;;;;;;;;;;5107046;27;20088;-83
2022/10/03 07:07:07;;;;;;;7.85;1.98;;;;;;;;;;5129899;27;20535;-83
2022/10/03 07:09:37;;;;;;;6.47;1.88;;;;;;;;;;5128344;27;20046;-83
2022/10/03 07:12:06;;;;;;;7.07;2.10;;;;;;;;;;5122676;27;20051;-83
2022/10/03 07:14:41;;;;;;;7.80;2.08;;;;;;;;;;5129777;27;20448;-83
2022/10/03 07:17:27;;;;;;;9.23;2.40;;;;;;;;;;5111291;27;20058;-83
2022/10/03 07:20:02;;;;;;;9.48;2.20;;;;;;;;;;5114594;27;20043;-83
2022/10/03 07:22:41;;;;;;;6.50;2.10;;;;;;;;;;5116691;27;20100;-83
2022/10/03 07:25:19;;;;;;;9.18;2.45;;;;;;;;;;5112667;28;20044;-84
2022/10/03 07:28:01;;;;;;;7.32;2.05;;;;;;;;;;5127451;28;20046;-83
2022/10/03 07:30:50;;;;;;;8.55;2.28;;;;;;;;;;5105392;27;20078;-84
2022/10/03 07:33:35;;;;;;;7.60;1.92;;;;;;;;;;5083031;28;20127;-83
2022/10/03 07:39:15;;;;;;;4.63;1.80;;;;;;;;;;5112091;28;20495;-83
2022/10/03 07:41:51;;;;;;;8.85;2.30;;;;;;;;;;5148907;22;20463;-83
2022/10/03 07:44:43;;;;;;;7.22;2.50;;;;;;;;;;5085090;28;20058;-84
2022/10/03 07:47:28;;;;;;;7.80;2.17;;;;;;;;;;5036372;28;20048;-84
2022/10/03 07:50:00;;;;;;;7.43;1.90;;;;;;;;;;5073100;28;20089;-84
2022/10/03 07:52:32;;;;;;;6.75;2.10;;;;;;;;;;5081039;28;20632;-84
2022/10/03 07:55:09;;;;;;;7.85;1.85;;;;;;;;;;5079343;28;20131;-84
2022/10/03 07:57:41;;;;;;;5.47;2.00;;;;;;;;;;5087106;28;20062;-84
2022/10/03 08:00:07;;;;;;;5.95;2.00;;;;;;;;;;5087865;28;20109;-84
2022/10/03 08:02:43;;;;;;;6.32;2.00;;;;;;;;;;5072041;28;20097;-83
2022/10/03 08:05:27;;;;;;;6.13;2.08;;;;;;;;;;5087668;28;20615;-83
2022/10/03 08:08:17;;;;;;;6.65;2.00;;;;;;;;;;5071620;28;20059;-83
2022/10/03 08:10:55;;;;;;;9.30;2.65;;;;;;;;;;5090620;28;20123;-84
2022/10/03 08:13:31;;;;;;;8.70;2.30;;;;;;;;;;5080283;28;20467;-84
2022/10/03 08:16:00;;;;;;;8.45;2.38;;;;;;;;;;5087746;28;20143;-83
2022/10/03 08:18:29;;;;;;;5.55;1.98;;;;;;;;;;5074914;28;21651;-84
2022/10/03 08:20:55;;;;;;;5.60;1.95;;;;;;;;;;5084292;28;20096;-84
2022/10/03 08:23:44;;;;;;;8.98;2.72;;;;;;;;;;5081691;28;20048;-83
2022/10/03 08:26:10;;;;;;;8.77;2.35;;;;;;;;;;5080294;28;20048;-83
2022/10/03 08:28:49;;;;;;;7.45;2.58;;;;;;;;;;5088120;28;20119;-84
2022/10/03 08:31:23;;;;;;;10.07;2.28;;;;;;;;;;5077872;28;20483;-84
2022/10/03 08:34:20;;;;;;;9.55;2.30;;;;;;;;;;5073613;28;20047;-84
2022/10/03 08:36:49;;;;;;;4.05;1.77;;;;;;;;;;5087742;28;20040;-84
2022/10/03 08:39:34;;;;;;;7.80;2.08;;;;;;;;;;5070976;28;20048;-83
2022/10/03 08:42:19;;;;;;;8.32;2.05;;;;;;;;;;5090270;22;20075;-83
2022/10/03 08:44:45;;;;;;;8.60;2.42;;;;;;;;;;5088971;28;20123;-84
2022/10/03 08:47:29;;;;;;;5.05;1.92;;;;;;;;;;5093943;28;20131;-83
2022/10/03 08:49:57;;;;;;;6.75;2.20;;;;;;;;;;5111926;27;20063;-83
2022/10/03 08:52:31;;;;;;;6.50;2.15;;;;;;;;;;5091888;28;20510;-84
2022/10/03 08:54:57;;;;;;;;;;;;;;;;;;5088350;28;20044;-83
2022/10/03 08:57:23;;;;;;;7.95;2.33;;;;;;;;;;5092256;28;19976;-84
2022/10/03 09:00:05;;;;;;;8.43;2.30;;;;;;;;;;5107771;28;20645;-85
2022/10/03 09:02:43;;;;;;;7.68;2.30;;;;;;;;;;5110575;28;20039;-84
2022/10/03 09:05:18;;;;;;;7.57;1.90;;;;;;;;;;5089784;28;20043;-83
2022/10/03 09:07:59;;;;;;;5.72;1.80;;;;;;;;;;5092795;28;20047;-83
2022/10/03 09:10:27;;;;;;;;;;;;;;;;;;5094144;28;20290;-84
2022/10/03 09:13:13;;;;;;;10.10;2.53;;;;;;;;;;5092978;28;19976;-84
2022/10/03 09:15:39;;;;;;;6.60;2.20;;;;;;;;;;5094396;28;20062;-84
2022/10/03 09:18:12;;;;;;;8.88;2.20;;;;;;;;;;5111327;27;20388;-84
2022/10/03 09:20:41;;;;;;;7.90;2.20;;;;;;;;;;5111656;28;20054;-84
2022/10/03 09:23:13;;;;;;;6.15;2.30;;;;;;;;;;5093411;28;20395;-83
2022/10/03 09:25:43;;;;;;;5.57;1.90;;;;;;;;;;5111472;28;20096;-84
2022/10/03 09:28:21;;;;;;;5.47;1.88;;;;;;;;;;5111077;22;20174;-85
2022/10/03 09:30:56;;;;;;;5.43;1.90;;;;;;;;;;5072571;28;20044;-85
2022/10/03 09:33:26;;;;;;;5.25;1.85;;;;;;;;;;5071320;28;20050;-84
2022/10/03 09:36:13;;;;;;;8.68;2.25;;;;;;;;;;5091912;28;20040;-84
2022/10/03 09:39:00;;;;;;;5.93;2.10;;;;;;;;;;5070146;28;20055;-84
2022/10/03 09:41:27;;;;;;;9.77;2.30;;;;;;;;;;5029496;28;21325;-84
2022/10/03 09:44:07;;;;;;;5.90;3.10;;;;;;;;;;5073095;28;20386;-85
2022/10/03 09:50:01;;;;;;;3.85;1.70;;;;;;;;;;5071359;28;20443;-85
2022/10/03 09:52:46;;;;;;;9.57;2.17;;;;;;;;;;5071927;28;20044;-83
2022/10/03 09:55:30;;;;;;;8.75;2.53;;;;;;;;;;5072418;28;20051;-84
2022/10/03 09:58:11;;;;;;;5.30;1.80;;;;;;;;;;5073011;28;20048;-85
2022/10/03 10:00:43;;;;;;;5.18;2.00;;;;;;;;;;5066245;28;20043;-84
2022/10/03 10:03:20;;;;;;;9.80;2.20;;;;;;;;;;5089091;28;20131;-84
2022/10/03 10:05:52;;;;;;;5.03;2.00;;;;;;;;;;5069522;28;20491;-84
2022/10/03 10:08:21;;;;;;;5.32;2.15;;;;;;;;;;5069054;28;20044;-84
2022/10/03 10:10:57;;;;;;;4.78;1.75;;;;;;;;;;5085321;28;20374;-84
2022/10/03 10:13:37;;;;;;;4.32;1.67;;;;;;;;;;5065366;28;20050;-84
2022/10/03 10:16:24;;;;;;;6.10;1.50;;;;;;;;;;5071054;28;20047;-83
2022/10/03 10:19:09;;;;;;;8.13;1.88;;;;;;;;;;5085108;28;20078;-84
2022/10/03 10:21:35;;;;;;;5.20;1.85;;;;;;;;;;5074375;28;20046;-81
2022/10/03 10:24:13;;;;;;;5.25;2.00;;;;;;;;;;5075459;28;20459;-81
2022/10/03 10:26:58;;;;;;;4.53;1.77;;;;;;;;;;5077179;28;20118;-82
2022/10/03 10:29:38;;;;;;;7.38;2.03;;;;;;;;;;5089139;28;20044;-82
2022/10/03 10:32:23;;;;;;;4.40;1.80;;;;;;;;;;5061807;28;20119;-82
2022/10/03 10:35:08;;;;;;;7.13;3.00;;;;;;;;;;5066240;28;20055;-82
2022/10/03 10:37:43;;;;;;;6.57;1.90;;;;;;;;;;5090370;28;20036;-82
2022/10/03 10:40:28;;;;;;;6.70;1.98;;;;;;;;;;5071557;28;20047;-82
2022/10/03 10:43:02;;;;;;;8.57;2.25;;;;;;;;;;5084907;28;20544;-82
2022/10/03 10:45:50;;;;;;;8.20;2.13;;;;;;;;;;5071561;28;20052;-81
2022/10/03 10:48:35;;;;;;;7.18;2.10;;;;;;;;;;5088138;28;20070;-81
2022/10/03 10:51:10;;;;;;;8.23;2.28;;;;;;;;;;5070118;28;20047;-83
2022/10/03 10:53:55;;;;;;;11.57;2.47;;;;;;;;;;5064842;28;20036;-82
2022/10/03 10:56:36;;;;;;;7.45;1.98;;;;;;;;;;5065586;28;20043;-83
2022/10/03 10:59:23;;;;;;;7.63;2.10;;;;;;;;;;5072172;28;20419;-84
2022/10/03 11:02:05;;;;;;;5.40;1.98;;;;;;;;;;5062600;28;20036;-83
2022/10/03 11:04:33;;;;;;;6.18;1.80;;;;;;;;;;5087724;28;20455;-83
2022/10/03 11:07:25;;;;;;;3.28;1.90;;;;;;;;;;5072321;28;20150;-83
2022/10/03 11:10:00;;;;;;;6.22;1.70;;;;;;;;;;5085453;28;20036;-83
2022/10/03 11:12:26;;;;;;;5.80;1.98;;;;;;;;;;5085137;28;20940;-83
2022/10/03 11:15:11;;;;;;;6.25;1.90;;;;;;;;;;5069283;28;20264;-83
2022/10/03 11:17:54;;;;;;;4.63;1.58;;;;;;;;;;5071481;28;20048;-83
2022/10/03 11:20:21;;;;;;;;;;;;;;;;;;5088719;28;20054;-83
2022/10/03 11:22:47;;;;;;;8.25;2.20;;;;;;;;;;5090028;28;20011;-83
2022/10/03 11:25:31;;;;;;;4.82;1.70;;;;;;;;;;5069658;28;20463;-83
2022/10/03 11:28:00;;;;;;;4.13;2.08;;;;;;;;;;5061056;28;20057;-82
2022/10/03 11:30:52;;;;;;;7.97;1.73;;;;;;;;;;5066156;28;22169;-88
2022/10/03 11:33:27;;;;;;;6.05;1.95;;;;;;;;;;5068165;28;20047;-77
2022/10/03 11:36:13;;;;;;;8.20;2.35;;;;;;;;;;5068147;28;20091;-87
2022/10/03 11:38:45;;;;;;;9.52;1.90;;;;;;;;;;5076750;28;20044;-81
2022/10/03 11:41:20;;;;;;;4.30;1.85;;;;;;;;;;5064040;28;20040;-83
2022/10/03 11:43:56;;;;;;;6.13;2.15;;;;;;;;;;5062601;28;20049;-83
2022/10/03 11:46:44;;;;;;;7.95;2.00;;;;;;;;;;5067827;28;20040;-83
2022/10/03 11:49:31;;;;;;;7.53;2.00;;;;;;;;;;5070340;28;20507;-83
2022/10/03 11:52:23;;;;;;;6.63;1.90;;;;;;;;;;5071894;28;20086;-82
2022/10/03 11:54:52;;;;;;;4.78;1.70;;;;;;;;;;5067984;28;20101;-83
2022/10/03 11:57:33;;;;;;;6.50;2.15;;;;;;;;;;5066876;28;20079;-83
2022/10/03 12:00:15;;;;;;;6.95;1.88;;;;;;;;;;5072303;28;20043;-83
2022/10/03 12:02:47;;;;;;;3.75;1.90;;;;;;;;;;5071067;28;20526;-82
2022/10/03 12:05:30;;;;;;;8.40;2.13;;;;;;;;;;5068715;28;20151;-82
2022/10/03 12:11:00;;;;;;;4.05;1.75;;;;;;;;;;5070090;28;19920;-83
2022/10/03 12:13:35;;;;;;;4.43;1.80;;;;;;;;;;5070924;28;22100;-82
2022/10/03 12:16:02;;;;;;;3.95;1.83;;;;;;;;;;5072489;28;20113;-83
2022/10/03 12:18:48;;;;;;;6.18;1.98;;;;;;;;;;5071676;28;20105;-83
2022/10/03 12:21:14;;;;;;;4.50;1.80;;;;;;;;;;5070188;28;20506;-83
2022/10/03 12:23:40;;;;;;;2.67;1.70;;;;;;;;;;5072132;28;20116;-82
2022/10/03 12:26:09;;;;;;;5.20;1.98;;;;;;;;;;5072620;28;20557;-83
2022/10/03 12:28:38;;;;;;;3.63;1.60;;;;;;;;;;5072125;28;20114;-83
2022/10/03 12:31:19;;;;;;;5.63;2.00;;;;;;;;;;5071060;28;20044;-83
2022/10/03 12:34:01;;;;;;;8.25;1.90;;;;;;;;;;5073585;28;20036;-82
2022/10/03 12:36:35;;;;;;;4.70;1.83;;;;;;;;;;5069042;28;20140;-82
2022/10/03 12:39:19;;;;;;;4.95;1.77;;;;;;;;;;5071452;28;20052;-82
2022/10/03 12:41:48;;;;;;;3.83;1.63;;;;;;;;;;5070564;28;20123;-83
2022/10/03 12:44:17;;;;;;;5.55;1.60;;;;;;;;;;5068928;28;20055;-83
2022/10/03 12:46:43;;;;;;;3.80;1.58;;;;;;;;;;5069942;28;20048;-83
2022/10/03 12:49:19;;;;;;;5.60;1.75;;;;;;;;;;5070634;28;20052;-82
2022/10/03 12:51:51;;;;;;;7.25;1.80;;;;;;;;;;5070746;28;20040;-82
2022/10/03 12:54:21;;;;;;;4.20;1.80;;;;;;;;;;5070964;28;20508;-82
2022/10/03 12:57:02;;;;;;;4.75;1.88;;;;;;;;;;5083861;28;20045;-83
2022/10/03 12:59:44;;;;;;;4.60;1.83;;;;;;;;;;5070351;28;20634;-83
2022/10/03 13:02:11;;;;;;;5.55;1.92;;;;;;;;;;5065947;28;20046;-83
2022/10/03 13:04:55;;;;;;;5.15;1.60;;;;;;;;;;5069625;28;20032;-82
2022/10/03 13:07:21;;;;;;;7.25;2.00;;;;;;;;;;5065978;28;20048;-83
2022/10/03 13:10:06;;;;;;;4.82;2.28;;;;;;;;;;5072533;28;20045;-83
2022/10/03 13:12:39;;;;;;;8.73;1.92;;;;;;;;;;5069469;28;20547;-83
2022/10/03 13:15:24;;;;;;;5.10;1.98;;;;;;;;;;5062925;28;20041;-82
2022/10/03 13:17:55;;;;;;;4.72;1.75;;;;;;;;;;5062141;28;20063;-83
2022/10/03 13:20:33;;;;;;;3.53;1.50;;;;;;;;;;5065655;28;20040;-83
2022/10/03 13:23:20;;;;;;;2.42;1.50;;;;;;;;;;5070846;28;20056;-83
2022/10/03 13:25:52;;;;;;;4.10;2.03;;;;;;;;;;5064512;28;20078;-83
2022/10/03 13:28:18;;;;;;;6.30;1.63;;;;;;;;;;5074442;28;20383;-83
2022/10/03 13:30:47;;;;;;;8.18;1.95;;;;;;;;;;5092741;28;20101;-81
2022/10/03 13:33:21;;;;;;;6.75;2.03;;;;;;;;;;5069445;28;20051;-82
2022/10/03 13:35:57;;;;;;;7.13;2.20;;;;;;;;;;5086489;28;20044;-82
2022/10/03 13:38:25;;;;;;;3.50;2.10;;;;;;;;;;5072489;28;20380;-81
2022/10/03 13:40:55;;;;;;;3.80;1.58;;;;;;;;;;5071905;28;20052;-80
2022/10/03 13:43:24;;;;;;;5.43;1.90;;;;;;;;;;5089800;28;20042;-80
2022/10/03 13:45:55;;;;;;;3.38;1.50;;;;;;;;;;5091155;28;20036;-80
2022/10/03 13:48:22;;;;;;;7.10;1.90;;;;;;;;;;5071386;28;20510;-80
2022/10/03 13:51:01;;;;;;;6.07;2.22;;;;;;;;;;5088821;28;20116;-80
2022/10/03 13:53:46;;;;;;;4.50;1.50;;;;;;;;;;5089772;28;20076;-80
2022/10/03 13:56:21;;;;;;;3.63;1.50;;;;;;;;;;5088710;28;20437;-86
2022/10/03 13:58:47;;;;;;;3.97;1.33;;;;;;;;;;5068509;28;20063;-82
2022/10/03 14:01:20;;;;;;;5.90;1.60;;;;;;;;;;5070712;28;20150;-83
2022/10/03 14:03:47;;;;;;;5.35;1.90;;;;;;;;;;5064289;28;20036;-86
2022/10/03 14:06:13;;;;;;;11.73;1.95;;;;;;;;;;5069985;28;20063;-83
2022/10/03 14:09:00;;;;;;;4.97;1.60;;;;;;;;;;5083828;28;20065;-83
2022/10/03 14:11:30;;;;;;;5.57;1.60;;;;;;;;;;5087979;28;20067;-83
2022/10/03 14:13:56;;;;;;;4.47;1.38;;;;;;;;;;5073436;28;20475;-81
2022/10/03 14:16:26;;;;;;;4.57;1.50;;;;;;;;;;5111074;22;20058;-82
2022/10/03 14:18:52;;;;;;;5.68;1.83;;;;;;;;;;5071834;28;20105;-81
2022/10/03 14:21:57;;;;;;;5.07;1.75;;;;;;;;;;5089194;28;20433;-81
2022/10/03 14:24:27;;;;;;;6.45;1.60;;;;;;;;;;5006372;28;20081;-84
2022/10/03 14:27:01;;;;;;;3.95;1.70;;;;;;;;;;4990765;28;20041;-83
2022/10/03 14:29:27;;;;;;;3.88;1.73;;;;;;;;;;5034921;28;20060;-85
2022/10/03 14:32:14;;;;;;;6.78;1.50;;;;;;;;;;5091235;28;20111;-83
2022/10/03 14:34:43;;;;;;;3.22;1.65;;;;;;;;;;5071437;28;20062;-83
2022/10/03 14:37:28;;;;;;;4.18;1.70;;;;;;;;;;5071931;28;20055;-84
2022/10/03 14:40:10;;;;;;;1.95;1.50;;;;;;;;;;5074698;28;20044;-84
2022/10/03 14:42:52;;;;;;;4.82;1.88;;;;;;;;;;5073718;28;20043;-84
2022/10/03 14:45:25;;;;;;;1.73;1.50;;;;;;;;;;5085599;28;20345;-83
2022/10/03 14:47:52;;;;;;;4.13;1.60;;;;;;;;;;5069931;28;20048;-83
2022/10/03 14:50:21;;;;;;;4.25;1.45;;;;;;;;;;5067529;28;20055;-83
2022/10/03 14:52:50;;;;;;;3.20;1.70;;;;;;;;;;5067125;28;20036;-83
2022/10/03 14:55:21;;;;;;;3.75;1.48;;;;;;;;;;5087859;28;20078;-82
2022/10/03 14:57:58;;;;;;;2.67;1.30;;;;;;;;;;5066601;28;20475;-82
2022/10/03 15:00:37;;;;;;;4.50;1.93;;;;;;;;;;5070093;28;20043;-82
2022/10/03 15:03:15;;;;;;;3.80;1.77;;;;;;;;;;5063287;28;20044;-83
2022/10/03 15:06:08;;;;;;;3.88;1.58;;;;;;;;;;5084188;28;20036;-82
2022/10/03 15:08:38;;;;;;;3.47;1.30;;;;;;;;;;5081608;28;20793;-83
2022/10/03 15:11:05;;;;;;;5.07;1.73;;;;;;;;;;5068754;28;20302;-85
2022/10/03 15:13:34;;;;;;;3.22;1.48;;;;;;;;;;5066832;28;20039;-82
2022/10/03 15:16:02;;;;;;;4.10;1.52;;;;;;;;;;5066998;28;20043;-79
2022/10/03 15:18:29;;;;;;;3.05;1.50;;;;;;;;;;5070406;28;20083;-83
2022/10/03 15:20:56;;;;;;;2.13;1.45;;;;;;;;;;5106871;28;20079;-83
2022/10/03 15:23:26;;;;;;;3.40;1.30;;;;;;;;;;5064749;28;20071;-83
2022/10/03 15:25:53;;;;;;;3.25;1.58;;;;;;;;;;5070588;28;20044;-87
2022/10/03 15:28:26;;;;;;;4.03;1.75;;;;;;;;;;5087945;28;20130;-88
2022/10/03 15:30:54;;;;;;;3.75;1.60;;;;;;;;;;5068407;28;20043;-84
2022/10/03 15:33:34;;;;;;;3.08;1.40;;;;;;;;;;5068024;28;20131;-85
2022/10/03 15:36:07;;;;;;;4.95;1.75;;;;;;;;;;5070161;28;20056;-84
2022/10/03 15:38:34;;;;;;;4.80;1.80;;;;;;;;;;5088330;28;20072;-84
2022/10/03 15:41:21;;;;;;;4.93;1.50;;;;;;;;;;5067480;28;20065;-83
2022/10/03 15:44:01;;;;;;;3.00;1.50;;;;;;;;;;5062571;28;20047;-83
2022/10/03 15:46:33;;;;;;;5.13;1.60;;;;;;;;;;5070501;28;20360;-83
2022/10/03 15:49:06;;;;;;;3.72;1.70;;;;;;;;;;5069644;28;20043;-82
2022/10/03 15:51:33;;;;;;;4.05;1.70;;;;;;;;;;5068245;28;20039;-82